Дайбира

Карта отелей и гостиниц, располагающихся рядом с аэропортом Дайбира :

Дайбира Хабаровский край 51° 11' 0.8988" N, 138° 50' 59.82" E
Дайбира Хабаровский край 51° 11' 0.8988" N, 138° 50' 59.82" E
Код аэродрома ИКАО: 
HEY1
Код аэродрома RU: 
ХЕЫ1
Координаты: 
N51.18358° E138.84995°
Превышение над уровнем моря : 
98
Основная полоса: 
10/28
Курс магнитный: 
102,1/282,1
Длина основной ВПП: 
22
Ширина основной ВПП: 
22
Покрытие основной ВПП: 
Твёрдое
Освещение ВПП: 
Нет
Тип: 
Вертодром
Класс аэродрома: 
Принадлежность: 
ГА
Статус: 
Действующий
Сайт: 
E-mail аэродрома: 
Страна: 
Россия
Регион: 
Хабаровский край
Город: 
Дополнительная информация: 
Оператор: нет данных.

Найти трансфер

С помощью этой формы Вы можете найти трансфер из аэропорта Дайбира в город, аэропорт или вокзал:

Карта места

Javascript is required to view this map.

Погода в аэропортах:

Авиационная погода в Елизово

Регион: 
Погода METAR: 
UHPP 281930Z 03004MPS 290V100 9999 -SHRA SCT040CB 06/05 Q1003 R16R/290345 NOSIG RMK MT OBSC QFE749/0999
Время наблюдения: 
2020-09-28T19:30:00Z
Температура C: 
6.0
Точка росы: 
5.0
Направление ветра: 
30
Скорость ветра (узлы): 
8
Метеорологическая видимость: 
6.21
Явления погоды: 
-SHRA
Условия полета: 
VFR
Аэропорт подробнее: 

Авиационная погода в Чорлу

Регион: 
Погода METAR: 
LTBU 281950Z 16011KT 9999 -SHRA SCT040 BKN100 21/18 Q1014 RMK RWY22 17013KT
Время наблюдения: 
2020-09-28T19:50:00Z
Температура C: 
21.0
Точка росы: 
18.0
Направление ветра: 
160
Скорость ветра (узлы): 
11
Метеорологическая видимость: 
6.21
Явления погоды: 
-SHRA
Условия полета: 
VFR

Авиационная погода в Полярном

Регион: 
Погода METAR: 
UERP 282000Z 33007G12MPS 3000 -SHSN BLSN BKN009CB OVC100 M03/M03 Q0993 R35/290340 NOSIG RMK QFE701
Время наблюдения: 
2020-09-28T20:00:00Z
Температура C: 
-3.0
Точка росы: 
-3.0
Направление ветра: 
330
Скорость ветра (узлы): 
14
Метеорологическая видимость: 
1.86
Явления погоды: 
-SHSN BLSN
Условия полета: 
IFR
Аэропорт подробнее: 

Авиационная погода в Богашево

Регион: 
Погода METAR: 
UNTT 281930Z 26003MPS 8000 -SHRA FEW021CB 09/06 Q1018 R21/090060 NOSIG RMK QFE748
Время наблюдения: 
2020-09-28T19:30:00Z
Температура C: 
9.0
Точка росы: 
6.0
Направление ветра: 
260
Скорость ветра (узлы): 
6
Метеорологическая видимость: 
4.97
Явления погоды: 
-SHRA
Условия полета: 
MVFR
Аэропорт подробнее: